sensor_id;sensor_type;location;lat;lon;timestamp;temperature;humidity
63960;DHT22;50136;51.374;0.096;2023-08-21T00:05:58;16.80;99.90
63960;DHT22;50136;51.374;0.096;2023-08-21T00:16:00;16.80;99.90
63960;DHT22;50136;51.374;0.096;2023-08-21T00:26:03;16.70;99.90
63960;DHT22;50136;51.374;0.096;2023-08-21T00:36:06;16.60;99.90
63960;DHT22;50136;51.374;0.096;2023-08-21T00:46:09;16.40;99.90
63960;DHT22;50136;51.374;0.096;2023-08-21T00:56:12;16.20;99.90
63960;DHT22;50136;51.374;0.096;2023-08-21T01:06:16;16.00;99.90
63960;DHT22;50136;51.374;0.096;2023-08-21T01:16:18;15.90;99.90
63960;DHT22;50136;51.374;0.096;2023-08-21T01:26:23;15.80;99.90
63960;DHT22;50136;51.374;0.096;2023-08-21T01:36:25;15.70;99.90
63960;DHT22;50136;51.374;0.096;2023-08-21T01:46:29;15.50;99.90
63960;DHT22;50136;51.374;0.096;2023-08-21T01:56:31;15.40;99.90
63960;DHT22;50136;51.374;0.096;2023-08-21T02:06:34;15.30;99.90
63960;DHT22;50136;51.374;0.096;2023-08-21T02:16:36;15.20;99.90
63960;DHT22;50136;51.374;0.096;2023-08-21T02:26:40;15.10;99.90
63960;DHT22;50136;51.374;0.096;2023-08-21T02:36:41;15.10;99.90
63960;DHT22;50136;51.374;0.096;2023-08-21T02:46:45;15.00;99.90
63960;DHT22;50136;51.374;0.096;2023-08-21T02:56:47;14.90;99.90
63960;DHT22;50136;51.374;0.096;2023-08-21T03:06:50;14.90;99.90
63960;DHT22;50136;51.374;0.096;2023-08-21T03:16:52;14.90;99.90
63960;DHT22;50136;51.374;0.096;2023-08-21T03:26:55;14.90;99.90
63960;DHT22;50136;51.374;0.096;2023-08-21T03:36:57;14.90;99.90
63960;DHT22;50136;51.374;0.096;2023-08-21T03:47:01;14.80;99.90
63960;DHT22;50136;51.374;0.096;2023-08-21T03:57:03;14.70;99.90
63960;DHT22;50136;51.374;0.096;2023-08-21T04:07:06;14.80;99.90
63960;DHT22;50136;51.374;0.096;2023-08-21T04:17:08;15.10;99.90
63960;DHT22;50136;51.374;0.096;2023-08-21T04:27:12;15.30;99.90
63960;DHT22;50136;51.374;0.096;2023-08-21T04:37:14;15.50;99.90
63960;DHT22;50136;51.374;0.096;2023-08-21T04:47:21;15.60;99.90
63960;DHT22;50136;51.374;0.096;2023-08-21T04:57:23;15.60;99.90
63960;DHT22;50136;51.374;0.096;2023-08-21T05:07:27;15.80;99.90
63960;DHT22;50136;51.374;0.096;2023-08-21T05:17:31;15.80;99.90
63960;DHT22;50136;51.374;0.096;2023-08-21T05:27:34;15.80;99.90
63960;DHT22;50136;51.374;0.096;2023-08-21T05:37:37;15.80;99.90
63960;DHT22;50136;51.374;0.096;2023-08-21T05:47:40;15.90;99.90
63960;DHT22;50136;51.374;0.096;2023-08-21T05:57:42;15.80;99.90
63960;DHT22;50136;51.374;0.096;2023-08-21T06:07:46;15.90;99.90
63960;DHT22;50136;51.374;0.096;2023-08-21T06:17:47;15.90;99.90
63960;DHT22;50136;51.374;0.096;2023-08-21T06:27:51;16.00;99.90
63960;DHT22;50136;51.374;0.096;2023-08-21T06:38:00;16.10;99.90
63960;DHT22;50136;51.374;0.096;2023-08-21T06:48:03;16.10;99.90
63960;DHT22;50136;51.374;0.096;2023-08-21T06:58:05;16.20;99.90
63960;DHT22;50136;51.374;0.096;2023-08-21T07:08:09;16.20;99.90
63960;DHT22;50136;51.374;0.096;2023-08-21T07:18:11;16.30;99.90
63960;DHT22;50136;51.374;0.096;2023-08-21T07:28:14;16.30;99.90
63960;DHT22;50136;51.374;0.096;2023-08-21T07:38:16;16.60;99.90
63960;DHT22;50136;51.374;0.096;2023-08-21T07:48:19;16.60;99.90
63960;DHT22;50136;51.374;0.096;2023-08-21T07:58:22;16.70;99.90
63960;DHT22;50136;51.374;0.096;2023-08-21T08:08:25;16.90;99.90
63960;DHT22;50136;51.374;0.096;2023-08-21T08:18:27;17.00;99.90
63960;DHT22;50136;51.374;0.096;2023-08-21T08:28:30;17.20;99.90
63960;DHT22;50136;51.374;0.096;2023-08-21T08:38:32;17.50;99.90
63960;DHT22;50136;51.374;0.096;2023-08-21T08:48:37;17.80;99.90
63960;DHT22;50136;51.374;0.096;2023-08-21T08:58:39;18.00;99.90
63960;DHT22;50136;51.374;0.096;2023-08-21T09:08:53;18.40;99.90
63960;DHT22;50136;51.374;0.096;2023-08-21T09:18:56;18.40;99.90
63960;DHT22;50136;51.374;0.096;2023-08-21T09:29:03;18.60;99.90
63960;DHT22;50136;51.374;0.096;2023-08-21T09:39:05;18.80;99.90
63960;DHT22;50136;51.374;0.096;2023-08-21T09:49:09;19.40;99.90
63960;DHT22;50136;51.374;0.096;2023-08-21T09:59:12;19.80;99.90
63960;DHT22;50136;51.374;0.096;2023-08-21T10:09:16;21.40;99.90
63960;DHT22;50136;51.374;0.096;2023-08-21T10:19:18;25.10;99.90
63960;DHT22;50136;51.374;0.096;2023-08-21T10:29:22;26.20;98.70
63960;DHT22;50136;51.374;0.096;2023-08-21T10:39:24;27.90;95.70
63960;DHT22;50136;51.374;0.096;2023-08-21T10:49:28;27.30;97.80
63960;DHT22;50136;51.374;0.096;2023-08-21T10:59:30;26.90;97.20
63960;DHT22;50136;51.374;0.096;2023-08-21T11:09:35;26.30;96.80
63960;DHT22;50136;51.374;0.096;2023-08-21T11:19:38;26.90;96.40
63960;DHT22;50136;51.374;0.096;2023-08-21T11:29:43;25.80;97.00
63960;DHT22;50136;51.374;0.096;2023-08-21T11:39:47;26.60;96.80
63960;DHT22;50136;51.374;0.096;2023-08-21T11:49:50;25.90;97.00
63960;DHT22;50136;51.374;0.096;2023-08-21T11:59:54;25.90;97.10
63960;DHT22;50136;51.374;0.096;2023-08-21T12:09:58;25.50;96.90
63960;DHT22;50136;51.374;0.096;2023-08-21T12:20:00;25.40;97.40
63960;DHT22;50136;51.374;0.096;2023-08-21T12:30:06;25.10;97.60
63960;DHT22;50136;51.374;0.096;2023-08-21T12:40:08;24.90;97.10
63960;DHT22;50136;51.374;0.096;2023-08-21T12:50:12;25.10;97.10
63960;DHT22;50136;51.374;0.096;2023-08-21T13:00:14;24.70;97.30
63960;DHT22;50136;51.374;0.096;2023-08-21T13:10:18;24.70;96.80
63960;DHT22;50136;51.374;0.096;2023-08-21T13:20:20;24.30;98.00
63960;DHT22;50136;51.374;0.096;2023-08-21T13:30:23;24.70;97.80
63960;DHT22;50136;51.374;0.096;2023-08-21T13:40:25;24.90;97.50
63960;DHT22;50136;51.374;0.096;2023-08-21T13:50:29;24.90;97.80
63960;DHT22;50136;51.374;0.096;2023-08-21T14:00:31;25.20;97.30
63960;DHT22;50136;51.374;0.096;2023-08-21T14:10:34;25.40;97.50
63960;DHT22;50136;51.374;0.096;2023-08-21T14:20:36;25.80;97.40
63960;DHT22;50136;51.374;0.096;2023-08-21T14:30:40;26.40;96.90
63960;DHT22;50136;51.374;0.096;2023-08-21T14:40:42;26.20;96.60
63960;DHT22;50136;51.374;0.096;2023-08-21T14:50:45;26.20;96.80
63960;DHT22;50136;51.374;0.096;2023-08-21T15:00:47;26.00;97.60
63960;DHT22;50136;51.374;0.096;2023-08-21T15:10:54;26.80;96.30
63960;DHT22;50136;51.374;0.096;2023-08-21T15:20:56;27.10;96.30
63960;DHT22;50136;51.374;0.096;2023-08-21T15:30:59;27.60;95.90
63960;DHT22;50136;51.374;0.096;2023-08-21T15:41:01;27.20;95.80
63960;DHT22;50136;51.374;0.096;2023-08-21T15:51:05;26.60;95.80
63960;DHT22;50136;51.374;0.096;2023-08-21T16:01:07;26.50;96.70
63960;DHT22;50136;51.374;0.096;2023-08-21T16:11:10;26.30;96.30
63960;DHT22;50136;51.374;0.096;2023-08-21T16:21:12;26.40;96.30
63960;DHT22;50136;51.374;0.096;2023-08-21T16:31:16;26.30;96.20
63960;DHT22;50136;51.374;0.096;2023-08-21T16:41:18;25.80;96.40
63960;DHT22;50136;51.374;0.096;2023-08-21T16:51:22;25.30;97.30
63960;DHT22;50136;51.374;0.096;2023-08-21T17:01:24;25.30;97.10
63960;DHT22;50136;51.374;0.096;2023-08-21T17:11:27;24.80;97.40
63960;DHT22;50136;51.374;0.096;2023-08-21T17:21:39;24.70;97.80
63960;DHT22;50136;51.374;0.096;2023-08-21T22:58:36;18.00;99.90
63960;DHT22;50136;51.374;0.096;2023-08-21T23:08:38;17.90;99.90
63960;DHT22;50136;51.374;0.096;2023-08-21T23:18:41;17.80;99.90
63960;DHT22;50136;51.374;0.096;2023-08-21T23:28:43;17.70;99.90
63960;DHT22;50136;51.374;0.096;2023-08-21T23:38:47;17.50;99.90
63960;DHT22;50136;51.374;0.096;2023-08-21T23:48:49;17.40;99.90
63960;DHT22;50136;51.374;0.096;2023-08-21T23:58:52;17.40;99.90
